createdAt,value
2019-04-20T00:00:44.061Z,14.19
2019-04-20T00:03:09.596Z,14.06
2019-04-20T00:05:39.219Z,14.00
2019-04-20T00:08:15.866Z,14.02
2019-04-20T00:10:47.613Z,14.02
2019-04-20T00:13:22.948Z,13.94
2019-04-20T00:15:40.663Z,13.98
2019-04-20T00:18:11.426Z,13.92
2019-04-20T00:20:51.455Z,13.90
2019-04-20T00:23:28.806Z,13.89
2019-04-20T00:26:24.944Z,13.90
2019-04-20T00:29:06.925Z,13.96
2019-04-20T00:31:30.310Z,13.78
2019-04-20T00:33:56.291Z,13.73
2019-04-20T00:36:18.045Z,13.74
2019-04-20T00:38:53.049Z,13.69
2019-04-20T00:41:20.335Z,13.64
2019-04-20T00:43:49.155Z,13.60
2019-04-20T00:46:28.079Z,13.61
2019-04-20T00:48:59.478Z,13.48
2019-04-20T00:51:35.155Z,13.48
2019-04-20T00:53:56.872Z,13.43
2019-04-20T00:56:24.347Z,13.46
2019-04-20T00:59:09.196Z,13.41
2019-04-20T01:01:42.435Z,13.37
2019-04-20T01:04:14.862Z,13.33
2019-04-20T01:07:00.135Z,13.28
2019-04-20T01:09:19.981Z,13.31
2019-04-20T01:11:50.131Z,13.16
2019-04-20T01:14:27.280Z,13.12
2019-04-20T01:16:58.180Z,13.15
2019-04-20T01:19:20.618Z,13.18
2019-04-20T01:21:58.192Z,13.02
2019-04-20T01:24:27.510Z,13.01
2019-04-20T01:26:54.861Z,12.88
2019-04-20T01:29:30.188Z,12.89
2019-04-20T01:32:06.150Z,12.73
2019-04-20T01:34:37.897Z,12.60
2019-04-20T01:37:09.547Z,12.63
2019-04-20T01:39:31.920Z,12.58
2019-04-20T01:41:54.024Z,12.52
2019-04-20T01:44:27.012Z,12.57
2019-04-20T01:46:58.706Z,12.58
2019-04-20T01:49:27.464Z,12.38
2019-04-20T01:52:04.903Z,12.38
2019-04-20T01:54:48.464Z,12.36
2019-04-20T01:57:08.265Z,12.18
2019-04-20T01:59:46.003Z,12.23
2019-04-20T02:02:43.746Z,12.32
2019-04-20T02:05:16.664Z,12.26
2019-04-20T02:07:44.557Z,12.23
2019-04-20T02:10:14.827Z,12.36
2019-04-20T02:12:47.544Z,12.29
2019-04-20T02:15:25.678Z,12.27
2019-04-20T02:17:57.891Z,12.08
2019-04-20T02:20:33.010Z,12.27
2019-04-20T02:23:01.847Z,12.12
2019-04-20T02:25:16.321Z,12.11
2019-04-20T02:27:50.276Z,12.02
2019-04-20T02:33:36.192Z,12.14
2019-04-20T02:41:47.634Z,11.98
2019-04-20T02:44:14.719Z,11.99
2019-04-20T02:49:26.189Z,11.85
2019-04-20T02:51:47.601Z,11.89
2019-04-20T02:56:49.879Z,11.93
2019-04-20T02:59:47.545Z,11.84
2019-04-20T03:01:36.154Z,11.68
2019-04-20T03:03:52.698Z,11.72
2019-04-20T03:06:30.755Z,11.72
2019-04-20T03:09:10.067Z,11.79
2019-04-20T03:11:50.012Z,11.75
2019-04-20T03:14:10.677Z,11.59
2019-04-20T03:16:35.809Z,11.59
2019-04-20T03:19:08.097Z,11.63
2019-04-20T03:21:44.766Z,11.36
2019-04-20T03:24:18.867Z,11.30
2019-04-20T03:26:54.641Z,11.41
2019-04-20T03:29:54.594Z,11.38
2019-04-20T03:35:05.311Z,11.16
2019-04-20T03:37:30.724Z,11.22
2019-04-20T03:39:52.621Z,11.01
2019-04-20T03:42:07.523Z,11.17
2019-04-20T03:44:38.889Z,11.06
2019-04-20T03:47:11.571Z,11.07
2019-04-20T03:50:00.991Z,11.08
2019-04-20T03:52:40.362Z,11.07
2019-04-20T03:55:16.216Z,11.14
2019-04-20T03:58:03.395Z,11.15
2019-04-20T04:00:50.429Z,11.20
2019-04-20T04:03:47.219Z,11.07
2019-04-20T04:06:11.731Z,11.10
2019-04-20T04:08:35.817Z,11.19
2019-04-20T04:11:17.552Z,11.03
2019-04-20T04:13:29.091Z,11.14
2019-04-20T04:16:04.421Z,11.17
2019-04-20T04:18:35.427Z,11.08
2019-04-20T04:21:03.916Z,11.11
2019-04-20T04:23:47.110Z,11.03
2019-04-20T04:26:20.368Z,11.11
2019-04-20T04:28:47.527Z,11.11
2019-04-20T04:31:22.971Z,11.15
2019-04-20T04:33:55.920Z,11.08
2019-04-20T04:36:18.172Z,11.02
2019-04-20T04:39:11.188Z,11.07
2019-04-20T04:41:36.431Z,11.15
2019-04-20T04:43:54.213Z,11.31
2019-04-20T04:46:05.825Z,11.12
2019-04-20T04:48:40.318Z,11.13
2019-04-20T04:51:12.855Z,11.04
2019-04-20T04:53:45.252Z,10.98
2019-04-20T04:56:11.681Z,10.97
2019-04-20T04:58:36.485Z,11.07
2019-04-20T05:01:12.697Z,11.12
2019-04-20T05:03:54.002Z,11.08
2019-04-20T05:06:31.802Z,11.02
2019-04-20T05:08:52.416Z,11.11
2019-04-20T05:11:17.330Z,11.05
2019-04-20T05:13:52.849Z,11.15
2019-04-20T05:16:38.523Z,11.08
2019-04-20T05:21:56.432Z,11.15
2019-04-20T05:24:26.892Z,11.13
2019-04-20T05:27:20.891Z,11.21
2019-04-20T05:29:31.863Z,11.37
2019-04-20T05:32:05.987Z,11.40
2019-04-20T05:34:52.357Z,11.45
2019-04-20T05:37:29.713Z,11.57
2019-04-20T05:39:50.462Z,11.64
2019-04-20T05:42:23.386Z,11.67
2019-04-20T05:44:56.506Z,11.75
2019-04-20T05:47:26.991Z,11.82
2019-04-20T05:49:56.131Z,12.00
2019-04-20T05:52:39.110Z,11.95
2019-04-20T05:54:57.653Z,11.95
2019-04-20T05:57:31.965Z,12.02
2019-04-20T06:00:06.835Z,12.19
2019-04-20T06:02:32.266Z,12.33
2019-04-20T06:05:06.942Z,12.36
2019-04-20T06:07:31.127Z,12.45
2019-04-20T06:10:05.981Z,12.51
2019-04-20T06:12:35.802Z,12.57
2019-04-20T06:15:11.867Z,12.56
2019-04-20T06:18:16.571Z,12.78
2019-04-20T06:21:09.371Z,12.95
2019-04-20T06:23:44.489Z,13.07
2019-04-20T06:26:35.158Z,13.09
2019-04-20T06:28:35.330Z,13.14
2019-04-20T06:31:14.931Z,13.41
2019-04-20T06:34:27.682Z,13.61
2019-04-20T06:36:48.157Z,13.66
2019-04-20T06:39:16.177Z,13.74
2019-04-20T06:44:23.023Z,14.13
2019-04-20T06:46:52.456Z,14.20
2019-04-20T06:49:22.685Z,14.28
2019-04-20T06:51:53.165Z,14.19
2019-04-20T06:54:17.346Z,14.30
2019-04-20T06:57:00.217Z,14.38
2019-04-20T06:59:31.823Z,14.21
2019-04-20T07:02:10.073Z,14.23
2019-04-20T07:09:42.045Z,14.67
2019-04-20T07:12:01.505Z,14.85
2019-04-20T07:14:25.979Z,14.79
2019-04-20T07:17:34.994Z,14.98
2019-04-20T07:19:50.423Z,14.85
2019-04-20T07:22:54.321Z,15.44
2019-04-20T07:25:02.485Z,15.43
2019-04-20T07:27:33.056Z,15.80
2019-04-20T07:30:04.067Z,16.45
2019-04-20T07:32:41.832Z,16.78
2019-04-20T07:35:01.535Z,18.06
2019-04-20T07:40:25.786Z,19.36
2019-04-20T07:42:55.189Z,19.61
2019-04-20T07:45:29.543Z,19.76
2019-04-20T07:48:01.354Z,20.41
2019-04-20T07:50:21.761Z,20.41
2019-04-20T07:52:46.193Z,21.26
2019-04-20T07:57:53.780Z,21.64
2019-04-20T08:00:44.231Z,21.18
2019-04-20T08:03:29.677Z,20.75
2019-04-20T08:06:05.333Z,20.20
2019-04-20T08:08:43.782Z,21.14
2019-04-20T08:11:14.142Z,22.37
2019-04-20T08:13:53.983Z,23.35
2019-04-20T08:16:24.300Z,22.41
2019-04-20T08:18:49.883Z,22.50
2019-04-20T08:21:22.845Z,22.29
2019-04-20T08:23:48.947Z,22.43
2019-04-20T08:26:08.787Z,22.69
2019-04-20T08:28:46.595Z,22.69
2019-04-20T08:32:04.807Z,24.25
2019-04-20T08:34:39.723Z,24.10
2019-04-20T08:37:01.391Z,24.58
2019-04-20T08:39:46.933Z,23.51
2019-04-20T08:42:06.335Z,25.01
2019-04-20T08:47:32.269Z,23.79
2019-04-20T08:50:03.531Z,24.10
2019-04-20T08:52:47.112Z,23.82
2019-04-20T08:55:02.464Z,23.73
2019-04-20T08:57:13.377Z,23.96
2019-04-20T08:59:47.037Z,25.25
2019-04-20T09:02:18.405Z,25.35
2019-04-20T09:04:54.074Z,24.45
2019-04-20T09:07:23.262Z,25.19
2019-04-20T09:10:16.446Z,23.83
2019-04-20T09:12:36.860Z,24.81
2019-04-20T09:14:51.266Z,23.92
2019-04-20T09:17:39.732Z,25.30
2019-04-20T09:20:13.803Z,25.66
2019-04-20T09:22:49.119Z,25.81
2019-04-20T09:28:30.887Z,24.53
2019-04-20T09:31:18.557Z,24.33
2019-04-20T09:34:07.446Z,24.60
2019-04-20T09:36:40.799Z,25.88
2019-04-20T09:39:29.577Z,26.78
2019-04-20T09:42:01.083Z,25.37
2019-04-20T09:44:31.517Z,25.66
2019-04-20T09:47:00.299Z,27.48
2019-04-20T09:49:41.408Z,26.19
2019-04-20T09:52:14.565Z,25.04
2019-04-20T09:54:48.238Z,26.22
2019-04-20T09:57:22.608Z,27.05
2019-04-20T09:59:50.054Z,26.36
2019-04-20T10:02:07.839Z,27.05
2019-04-20T10:04:31.676Z,26.09
2019-04-20T10:07:07.957Z,25.70
2019-04-20T10:09:37.499Z,26.11
2019-04-20T10:12:01.745Z,27.21
2019-04-20T10:14:31.027Z,28.04
2019-04-20T10:17:00.102Z,28.98
2019-04-20T10:19:33.686Z,27.30
2019-04-20T10:22:00.395Z,27.79
2019-04-20T10:24:30.522Z,26.46
2019-04-20T10:26:59.241Z,26.44
2019-04-20T10:29:27.980Z,26.47
2019-04-20T10:31:59.282Z,29.07
2019-04-20T10:34:28.370Z,27.61
2019-04-20T10:37:17.602Z,26.78
2019-04-20T10:39:46.832Z,28.36
2019-04-20T10:42:16.297Z,27.04
2019-04-20T10:44:45.177Z,28.20
2019-04-20T10:47:14.709Z,29.27
2019-04-20T10:49:44.934Z,28.22
2019-04-20T10:52:13.764Z,26.25
2019-04-20T10:54:42.720Z,27.84
2019-04-20T10:57:11.566Z,28.45
2019-04-20T10:59:41.454Z,29.91
2019-04-20T11:02:10.095Z,29.46
2019-04-20T11:04:38.826Z,30.40
2019-04-20T11:07:08.295Z,29.96
2019-04-20T11:09:36.956Z,30.09
2019-04-20T11:12:06.338Z,28.75
2019-04-20T11:14:38.748Z,30.39
2019-04-20T11:17:06.643Z,28.98
2019-04-20T11:19:35.308Z,29.56
2019-04-20T11:22:04.326Z,29.31
2019-04-20T11:24:34.369Z,29.44
2019-04-20T11:27:04.514Z,29.30
2019-04-20T11:29:33.912Z,27.80
2019-04-20T11:32:03.107Z,30.06
2019-04-20T11:34:35.215Z,28.77
2019-04-20T11:37:03.400Z,28.81
2019-04-20T11:39:32.897Z,29.22
2019-04-20T11:42:01.675Z,31.07
2019-04-20T11:44:31.617Z,31.30
2019-04-20T11:47:00.903Z,31.31
2019-04-20T11:49:31.216Z,30.46
2019-04-20T11:51:59.883Z,29.96
2019-04-20T11:54:28.429Z,29.66
2019-04-20T11:56:57.442Z,30.15
2019-04-20T11:59:27.390Z,28.66
2019-04-20T12:02:30.321Z,30.26
2019-04-20T12:05:10.044Z,29.73
2019-04-20T12:07:33.705Z,28.38
2019-04-20T12:10:08.162Z,30.54
2019-04-20T12:12:39.009Z,30.06
2019-04-20T12:15:02.604Z,29.88
2019-04-20T12:17:31.436Z,31.31
2019-04-20T12:20:00.144Z,31.85
2019-04-20T12:22:28.735Z,31.99
2019-04-20T12:24:58.195Z,31.43
2019-04-20T12:27:27.004Z,31.23
2019-04-20T12:29:55.536Z,30.89
2019-04-20T12:32:27.081Z,30.32
2019-04-20T12:34:56.038Z,32.91
2019-04-20T12:37:25.095Z,32.64
2019-04-20T12:39:53.740Z,30.30
2019-04-20T12:42:23.111Z,32.52
2019-04-20T12:44:53.356Z,30.29
2019-04-20T12:47:22.164Z,28.81
2019-04-20T12:49:51.633Z,32.00
2019-04-20T12:52:20.731Z,31.18
2019-04-20T12:54:50.439Z,33.05
2019-04-20T12:57:20.594Z,31.64
2019-04-20T12:59:50.736Z,31.06
2019-04-20T13:02:20.102Z,31.19
2019-04-20T13:04:49.144Z,30.44
2019-04-20T13:07:17.887Z,29.77
2019-04-20T13:09:50.735Z,30.96
2019-04-20T13:12:30.349Z,31.68
2019-04-20T13:15:28.776Z,32.62
2019-04-20T13:17:57.416Z,33.29
2019-04-20T13:20:26.058Z,32.16
2019-04-20T13:22:55.041Z,29.96
2019-04-20T13:25:23.717Z,30.17
2019-04-20T13:27:52.766Z,32.20
2019-04-20T13:30:21.795Z,31.83
2019-04-20T13:32:50.390Z,29.16
2019-04-20T13:35:20.464Z,31.43
2019-04-20T13:37:50.000Z,31.80
2019-04-20T13:40:19.698Z,30.65
2019-04-20T13:42:49.795Z,31.80
2019-04-20T13:45:19.217Z,30.66
2019-04-20T13:47:48.701Z,31.64
2019-04-20T13:50:19.965Z,32.63
2019-04-20T13:52:48.965Z,33.43
2019-04-20T13:55:18.803Z,31.52
2019-04-20T13:58:04.215Z,31.77
2019-04-20T14:00:42.907Z,31.91
2019-04-20T14:03:11.527Z,30.94
2019-04-20T14:05:40.544Z,30.45
2019-04-20T14:08:09.875Z,32.37
2019-04-20T14:10:39.707Z,30.85
2019-04-20T14:13:13.612Z,30.80
2019-04-20T14:15:39.115Z,30.29
2019-04-20T14:18:08.973Z,30.17
2019-04-20T14:20:38.183Z,30.59
2019-04-20T14:23:07.385Z,29.99
2019-04-20T14:25:36.757Z,32.27
2019-04-20T14:28:05.416Z,32.15
2019-04-20T14:30:35.135Z,30.70
2019-04-20T14:33:05.224Z,30.42
2019-04-20T14:35:34.655Z,30.46
2019-04-20T14:38:03.866Z,29.21
2019-04-20T14:40:32.643Z,30.31
2019-04-20T14:43:01.686Z,28.82
2019-04-20T14:45:30.474Z,29.31
2019-04-20T14:47:59.559Z,29.52
2019-04-20T14:50:29.718Z,30.32
2019-04-20T14:52:59.684Z,29.99
2019-04-20T14:55:29.256Z,30.29
2019-04-20T14:58:02.020Z,30.12
2019-04-20T15:00:53.057Z,29.89
2019-04-20T15:03:49.949Z,28.76
2019-04-20T15:06:17.899Z,28.25
2019-04-20T15:08:46.561Z,29.12
2019-04-20T15:11:15.236Z,30.44
2019-04-20T15:13:44.744Z,30.76
2019-04-20T15:16:14.899Z,28.34
2019-04-20T15:19:07.543Z,29.88
2019-04-20T15:21:37.705Z,29.28
2019-04-20T15:24:06.416Z,29.68
2019-04-20T15:26:36.190Z,27.99
2019-04-20T15:29:06.354Z,27.46
2019-04-20T15:31:36.409Z,26.21
2019-04-20T15:34:05.170Z,25.92
2019-04-20T15:36:34.316Z,25.75
2019-04-20T15:39:05.479Z,26.61
2019-04-20T15:41:35.730Z,26.31
2019-04-20T15:44:04.515Z,26.07
2019-04-20T15:46:34.657Z,25.27
2019-04-20T15:49:06.115Z,25.19
2019-04-20T15:51:34.870Z,25.02
2019-04-20T15:54:03.551Z,25.11
2019-04-20T15:56:33.277Z,24.97
2019-04-20T15:59:02.343Z,24.86
2019-04-20T16:01:36.601Z,24.17
2019-04-20T16:04:20.754Z,24.01
2019-04-20T16:06:41.479Z,24.38
2019-04-20T16:09:10.484Z,24.14
2019-04-20T16:11:39.313Z,23.99
2019-04-20T16:14:09.058Z,24.31
2019-04-20T16:16:37.696Z,24.27
2019-04-20T16:19:14.707Z,24.25
2019-04-20T16:21:37.487Z,24.18
2019-04-20T16:24:15.114Z,24.16
2019-04-20T16:27:09.665Z,23.88
2019-04-20T16:29:39.697Z,23.86
2019-04-20T16:32:08.919Z,23.52
2019-04-20T16:34:38.401Z,23.47
2019-04-20T16:37:08.605Z,23.71
2019-04-20T16:39:38.561Z,23.77
2019-04-20T16:42:09.302Z,23.71
2019-04-20T16:44:38.943Z,23.74
2019-04-20T16:47:08.037Z,24.08
2019-04-20T16:49:37.055Z,24.22
2019-04-20T16:52:07.244Z,24.81
2019-04-20T16:54:36.121Z,24.93
2019-04-20T16:57:06.457Z,24.93
2019-04-20T16:59:40.182Z,24.42
2019-04-20T17:02:06.653Z,24.02
2019-04-20T17:04:35.689Z,23.83
2019-04-20T17:07:42.806Z,23.06
2019-04-20T17:10:14.176Z,23.02
2019-04-20T17:12:43.849Z,22.57
2019-04-20T17:15:14.060Z,22.66
2019-04-20T17:17:43.348Z,22.49
2019-04-20T17:20:13.711Z,22.23
2019-04-20T17:22:42.540Z,22.22
2019-04-20T17:25:14.194Z,22.39
2019-04-20T17:27:49.147Z,22.32
2019-04-20T17:30:42.188Z,22.10
2019-04-20T17:33:13.870Z,21.97
2019-04-20T17:35:53.196Z,22.07
2019-04-20T17:38:14.361Z,21.68
2019-04-20T17:41:01.309Z,21.58
2019-04-20T17:43:22.091Z,21.56
2019-04-20T17:45:54.326Z,21.27
2019-04-20T17:48:29.695Z,21.27
2019-04-20T17:51:06.629Z,21.10
2019-04-20T17:53:57.744Z,21.05
2019-04-20T17:56:22.205Z,20.97
2019-04-20T17:58:52.163Z,20.93
2019-04-20T18:02:00.392Z,20.85
2019-04-20T18:04:51.972Z,20.74
2019-04-20T18:06:57.932Z,20.72
2019-04-20T18:09:39.929Z,20.61
2019-04-20T18:11:53.739Z,20.41
2019-04-20T18:14:37.445Z,20.24
2019-04-20T18:17:10.159Z,20.29
2019-04-20T18:19:42.798Z,20.39
2019-04-20T18:22:11.950Z,20.23
2019-04-20T18:25:02.704Z,19.91
2019-04-20T18:27:36.252Z,19.94
2019-04-20T18:30:04.032Z,19.88
2019-04-20T18:32:23.616Z,19.82
2019-04-20T18:34:59.191Z,19.75
2019-04-20T18:37:26.868Z,19.77
2019-04-20T18:40:03.101Z,19.59
2019-04-20T18:42:34.341Z,19.55
2019-04-20T18:45:17.282Z,19.37
2019-04-20T18:47:46.926Z,19.33
2019-04-20T18:50:08.514Z,19.05
2019-04-20T18:52:29.518Z,19.02
2019-04-20T18:54:59.384Z,18.97
2019-04-20T18:57:29.642Z,18.76
2019-04-20T19:00:00.593Z,18.77
2019-04-20T19:02:33.449Z,18.57
2019-04-20T19:05:02.115Z,18.45
2019-04-20T19:07:34.862Z,18.27
2019-04-20T19:10:13.870Z,18.21
2019-04-20T19:12:41.494Z,18.35
2019-04-20T19:15:47.881Z,18.12
2019-04-20T19:18:15.686Z,18.09
2019-04-20T19:20:39.129Z,18.05
2019-04-20T19:23:08.405Z,18.04
2019-04-20T19:25:40.345Z,18.06
2019-04-20T19:28:08.860Z,17.96
2019-04-20T19:30:49.568Z,18.01
2019-04-20T19:33:22.717Z,17.91
2019-04-20T19:35:50.167Z,17.91
2019-04-20T19:38:18.626Z,17.83
2019-04-20T19:40:51.539Z,17.63
2019-04-20T19:43:22.069Z,17.62
2019-04-20T19:46:16.722Z,17.59
2019-04-20T19:48:27.899Z,17.55
2019-04-20T19:51:05.870Z,17.51
2019-04-20T19:53:31.857Z,17.48
2019-04-20T19:56:00.079Z,17.53
2019-04-20T19:58:28.097Z,17.46
2019-04-20T20:00:51.353Z,17.38
2019-04-20T20:03:17.958Z,17.36
2019-04-20T20:05:49.943Z,17.38
2019-04-20T20:08:23.027Z,17.32
2019-04-20T20:10:48.436Z,17.29
2019-04-20T20:13:18.256Z,17.23
2019-04-20T20:15:47.059Z,17.12
2019-04-20T20:18:33.391Z,17.21
2019-04-20T20:21:01.082Z,16.96
2019-04-20T20:23:18.167Z,16.83
2019-04-20T20:25:49.636Z,16.76
2019-04-20T20:28:30.808Z,16.65
2019-04-20T20:30:56.836Z,16.67
2019-04-20T20:33:35.258Z,16.49
2019-04-20T20:35:58.348Z,16.48
2019-04-20T20:38:28.034Z,16.57
2019-04-20T20:40:58.952Z,16.46
2019-04-20T20:43:34.413Z,16.31
2019-04-20T20:46:05.263Z,16.28
2019-04-20T20:48:35.648Z,16.20
2019-04-20T20:51:09.782Z,16.24
2019-04-20T20:53:41.938Z,16.24
2019-04-20T20:56:06.625Z,16.16
2019-04-20T20:58:40.183Z,16.02
2019-04-20T21:01:04.366Z,15.98
2019-04-20T21:03:32.299Z,15.88
2019-04-20T21:05:57.885Z,15.89
2019-04-20T21:08:26.732Z,15.85
2019-04-20T21:10:56.540Z,15.79
2019-04-20T21:13:33.286Z,15.70
2019-04-20T21:16:02.527Z,15.80
2019-04-20T21:18:49.106Z,15.85
2019-04-20T21:21:11.713Z,15.69
2019-04-20T21:23:37.026Z,15.62
2019-04-20T21:26:12.673Z,15.47
2019-04-20T21:28:39.818Z,15.40
2019-04-20T21:31:16.258Z,15.48
2019-04-20T21:33:40.576Z,15.55
2019-04-20T21:36:13.497Z,15.46
2019-04-20T21:38:42.490Z,15.39
2019-04-20T21:41:15.002Z,15.35
2019-04-20T21:43:44.392Z,15.21
2019-04-20T21:46:13.887Z,15.33
2019-04-20T21:48:55.950Z,15.23
2019-04-20T21:51:25.715Z,15.11
2019-04-20T21:53:44.319Z,15.03
2019-04-20T21:56:13.127Z,15.06
2019-04-20T21:58:49.446Z,15.10
2019-04-20T22:01:24.260Z,15.00
2019-04-20T22:03:44.731Z,15.09
2019-04-20T22:06:14.146Z,14.78
2019-04-20T22:08:45.930Z,14.83
2019-04-20T22:11:13.683Z,14.66
2019-04-20T22:13:44.566Z,14.50
2019-04-20T22:16:14.740Z,14.48
2019-04-20T22:18:54.017Z,14.62
2019-04-20T22:21:22.762Z,14.39
2019-04-20T22:24:01.822Z,14.45
2019-04-20T22:26:25.340Z,14.45
2019-04-20T22:28:47.943Z,14.38
2019-04-20T22:31:18.197Z,14.14
2019-04-20T22:33:48.708Z,14.26
2019-04-20T22:36:18.222Z,14.23
2019-04-20T22:39:07.582Z,14.18
2019-04-20T22:41:45.744Z,14.16
2019-04-20T22:44:15.127Z,13.94
2019-04-20T22:46:44.101Z,13.90
2019-04-20T22:49:32.960Z,13.88
2019-04-20T22:51:53.189Z,13.78
2019-04-20T22:54:27.902Z,13.89
2019-04-20T22:56:58.567Z,13.75
2019-04-20T22:59:21.119Z,13.65
2019-04-20T23:01:52.078Z,13.75
2019-04-20T23:04:17.058Z,13.68
2019-04-20T23:06:49.767Z,13.75
2019-04-20T23:09:16.861Z,13.64
2019-04-20T23:11:45.524Z,13.45
2019-04-20T23:14:14.408Z,13.56
2019-04-20T23:16:48.658Z,13.49
2019-04-20T23:19:14.222Z,13.38
2019-04-20T23:21:48.718Z,13.38
2019-04-20T23:24:15.339Z,13.36
2019-04-20T23:26:46.902Z,13.25
2019-04-20T23:29:15.394Z,13.22
2019-04-20T23:31:50.524Z,13.17
2019-04-20T23:34:20.135Z,13.36
2019-04-20T23:36:48.815Z,13.23
2019-04-20T23:39:17.019Z,13.41
2019-04-20T23:41:53.743Z,13.21
2019-04-20T23:44:29.402Z,13.10
2019-04-20T23:47:17.152Z,13.05
2019-04-20T23:50:03.960Z,12.96
2019-04-20T23:52:43.106Z,13.10
2019-04-20T23:54:58.113Z,13.09
2019-04-20T23:57:21.867Z,12.84
2019-04-20T23:59:52.012Z,12.97
